createdAt,value
2022-10-23T00:02:02.622Z,12.73
2022-10-23T00:04:32.193Z,12.30
2022-10-23T00:07:01.376Z,10.60
2022-10-23T00:09:31.522Z,10.13
2022-10-23T00:12:02.176Z,16.35
2022-10-23T00:14:31.769Z,16.77
2022-10-23T00:17:01.113Z,18.42
2022-10-23T00:19:30.610Z,15.05
2022-10-23T00:21:59.757Z,12.13
2022-10-23T00:24:29.217Z,11.38
2022-10-23T00:26:58.445Z,13.00
2022-10-23T00:29:29.527Z,13.30
2022-10-23T00:31:58.791Z,9.82
2022-10-23T00:34:28.669Z,17.70
2022-10-23T00:36:57.836Z,11.77
2022-10-23T00:39:27.376Z,11.55
2022-10-23T00:41:56.717Z,13.77
2022-10-23T00:45:03.544Z,14.85
2022-10-23T00:47:35.069Z,18.33
2022-10-23T00:50:05.415Z,11.90
2022-10-23T00:52:37.875Z,12.65
2022-10-23T00:55:08.098Z,10.10
2022-10-23T00:57:37.448Z,15.57
2022-10-23T01:00:07.982Z,14.48
2022-10-23T01:02:38.774Z,11.13
2022-10-23T01:05:09.775Z,15.77
2022-10-23T01:07:47.273Z,11.77
2022-10-23T01:10:23.519Z,12.07
2022-10-23T01:12:57.845Z,17.45
2022-10-23T01:15:34.155Z,26.45
2022-10-23T01:18:11.787Z,19.42
2022-10-23T01:20:53.784Z,19.02
2022-10-23T01:23:53.445Z,16.90
2022-10-23T01:26:45.696Z,37.70
2022-10-23T01:29:25.901Z,29.88
2022-10-23T01:32:00.323Z,31.65
2022-10-23T01:34:37.304Z,42.80
2022-10-23T01:37:09.858Z,30.73
2022-10-23T01:39:42.659Z,42.47
2022-10-23T01:42:15.287Z,19.17
2022-10-23T01:44:50.693Z,20.50
2022-10-23T01:47:25.239Z,16.10
2022-10-23T01:50:07.511Z,24.33
2022-10-23T01:52:38.349Z,19.98
2022-10-23T01:55:11.983Z,19.17
2022-10-23T01:57:44.682Z,16.63
2022-10-23T02:00:20.004Z,22.55
2022-10-23T02:02:57.008Z,17.50
2022-10-23T02:05:34.277Z,18.67
2022-10-23T02:08:05.804Z,21.70
2022-10-23T02:10:42.863Z,22.77
2022-10-23T02:13:18.602Z,27.33
2022-10-23T02:15:52.833Z,32.35
2022-10-23T02:18:33.126Z,36.00
2022-10-23T02:21:07.182Z,42.95
2022-10-23T02:23:40.394Z,49.40
2022-10-23T02:26:16.075Z,40.95
2022-10-23T02:28:53.593Z,49.08
2022-10-23T02:36:25.739Z,33.70
2022-10-23T02:38:54.977Z,26.55
2022-10-23T02:41:38.891Z,31.50
2022-10-23T02:44:27.260Z,29.67
2022-10-23T02:47:08.904Z,26.08
2022-10-23T02:49:45.893Z,24.92
2022-10-23T02:52:25.550Z,21.48
2022-10-23T02:55:16.434Z,23.58
2022-10-23T02:57:58.037Z,22.00
2022-10-23T03:00:31.058Z,33.85
2022-10-23T03:03:07.798Z,23.42
2022-10-23T03:05:40.283Z,24.45
2022-10-23T03:08:13.769Z,32.15
2022-10-23T03:10:44.270Z,29.80
2022-10-23T03:13:13.864Z,24.70
2022-10-23T03:15:45.235Z,20.38
2022-10-23T03:18:16.954Z,26.40
2022-10-23T03:20:52.747Z,25.02
2022-10-23T03:23:26.145Z,19.85
2022-10-23T03:25:56.525Z,21.15
2022-10-23T03:28:37.339Z,19.60
2022-10-23T03:31:07.196Z,22.90
2022-10-23T03:33:36.966Z,19.73
2022-10-23T03:36:12.112Z,24.40
2022-10-23T03:38:44.283Z,25.33
2022-10-23T03:41:13.730Z,20.77
2022-10-23T03:43:43.235Z,19.17
2022-10-23T03:46:13.164Z,22.98
2022-10-23T03:48:42.770Z,25.17
2022-10-23T03:51:12.492Z,23.90
2022-10-23T03:53:45.031Z,19.38
2022-10-23T03:56:14.498Z,20.35
2022-10-23T03:58:43.988Z,27.60
2022-10-23T04:01:13.460Z,21.60
2022-10-23T04:03:43.099Z,22.25
2022-10-23T04:06:12.602Z,22.88
2022-10-23T04:08:45.252Z,23.17
2022-10-23T04:13:48.591Z,28.05
2022-10-23T04:16:18.213Z,23.50
2022-10-23T04:18:47.797Z,25.90
2022-10-23T04:21:17.451Z,29.20
2022-10-23T04:23:48.615Z,26.42
2022-10-23T04:26:20.334Z,32.63
2022-10-23T04:28:50.100Z,34.85
2022-10-23T04:31:19.547Z,29.30
2022-10-23T04:33:49.243Z,34.60
2022-10-23T04:36:34.564Z,37.83
2022-10-23T04:39:14.721Z,32.60
2022-10-23T04:41:43.977Z,31.77
2022-10-23T04:44:13.459Z,30.70
2022-10-23T04:46:42.886Z,36.13
2022-10-23T04:49:12.706Z,32.80
2022-10-23T04:51:48.210Z,26.17
2022-10-23T04:54:39.788Z,32.25
2022-10-23T04:57:29.363Z,27.27
2022-10-23T05:00:03.150Z,25.67
2022-10-23T05:02:39.252Z,22.77
2022-10-23T05:05:10.298Z,27.92
2022-10-23T05:08:05.721Z,36.72
2022-10-23T05:10:56.901Z,27.95
2022-10-23T05:13:26.204Z,28.00
2022-10-23T05:15:55.811Z,24.77
2022-10-23T05:18:28.130Z,29.33
2022-10-23T05:21:00.882Z,30.10
2022-10-23T05:23:31.898Z,28.58
2022-10-23T05:26:06.239Z,32.92
2022-10-23T05:28:35.644Z,31.67
2022-10-23T05:31:07.233Z,34.83
2022-10-23T05:33:41.105Z,33.95
2022-10-23T05:36:13.123Z,32.38
2022-10-23T05:38:42.876Z,34.40
2022-10-23T05:41:18.063Z,37.25
2022-10-23T05:43:47.698Z,36.80
2022-10-23T05:46:42.980Z,31.88
2022-10-23T05:49:41.563Z,30.65
2022-10-23T05:52:31.299Z,34.92
2022-10-23T05:55:18.734Z,28.17
2022-10-23T05:58:27.871Z,25.80
2022-10-23T06:01:14.219Z,29.10
2022-10-23T06:04:01.267Z,30.58
2022-10-23T06:06:50.685Z,32.13
2022-10-23T06:09:20.707Z,30.27
2022-10-23T06:11:51.834Z,33.05
2022-10-23T06:14:26.237Z,38.83
2022-10-23T06:16:56.639Z,31.77
2022-10-23T06:19:27.725Z,30.63
2022-10-23T06:21:59.512Z,38.78
2022-10-23T06:24:43.125Z,38.22
2022-10-23T06:27:15.559Z,41.47
2022-10-23T06:29:48.308Z,36.92
2022-10-23T06:32:18.550Z,33.38
2022-10-23T06:34:57.840Z,40.58
2022-10-23T06:37:28.271Z,39.40
2022-10-23T06:40:26.977Z,43.08
2022-10-23T06:43:03.548Z,47.17
2022-10-23T06:45:35.594Z,38.15
2022-10-23T06:48:16.955Z,31.80
2022-10-23T06:50:46.373Z,42.10
2022-10-23T06:53:20.501Z,36.10
2022-10-23T06:56:00.047Z,46.80
2022-10-23T06:58:29.760Z,42.15
2022-10-23T07:01:09.760Z,39.63
2022-10-23T07:03:39.162Z,33.22
2022-10-23T07:06:12.268Z,38.35
2022-10-23T07:08:41.916Z,34.95
2022-10-23T07:11:29.859Z,34.78
2022-10-23T07:14:02.752Z,27.77
2022-10-23T07:16:35.563Z,31.42
2022-10-23T07:19:07.861Z,31.52
2022-10-23T07:21:59.703Z,30.05
2022-10-23T07:24:45.591Z,28.80
2022-10-23T07:27:29.087Z,28.55
2022-10-23T07:30:03.570Z,30.38
2022-10-23T07:32:57.461Z,28.85
2022-10-23T07:35:59.370Z,24.23
2022-10-23T07:38:30.825Z,25.90
2022-10-23T07:41:00.466Z,26.38
2022-10-23T07:48:42.457Z,27.65
2022-10-23T07:51:15.971Z,23.42
2022-10-23T07:53:52.124Z,23.02
2022-10-23T07:56:34.434Z,21.67
2022-10-23T07:59:25.245Z,23.33
2022-10-23T08:01:57.591Z,22.80
2022-10-23T08:04:35.275Z,22.38
2022-10-23T08:07:13.653Z,22.10
2022-10-23T08:09:46.116Z,24.00
2022-10-23T08:12:15.436Z,23.63
2022-10-23T08:14:45.010Z,24.42
2022-10-23T08:17:15.018Z,21.08
2022-10-23T08:20:06.070Z,20.80
2022-10-23T08:22:44.396Z,21.83
2022-10-23T08:25:16.239Z,18.63
2022-10-23T08:27:45.870Z,16.10
2022-10-23T08:30:17.375Z,20.95
2022-10-23T08:32:49.915Z,20.85
2022-10-23T08:35:20.900Z,16.40
2022-10-23T08:37:50.227Z,16.35
2022-10-23T08:40:23.393Z,17.63
2022-10-23T08:43:20.348Z,16.13
2022-10-23T08:46:09.374Z,12.75
2022-10-23T08:49:22.092Z,11.40
2022-10-23T08:54:46.323Z,9.35
2022-10-23T08:57:18.485Z,9.05
2022-10-23T08:59:50.766Z,7.63
2022-10-23T09:02:25.817Z,9.60
2022-10-23T09:04:57.148Z,6.32
2022-10-23T09:07:40.701Z,6.07
2022-10-23T09:10:31.862Z,4.10
2022-10-23T09:13:17.489Z,6.18
2022-10-23T09:15:50.880Z,4.53
2022-10-23T09:18:20.459Z,4.78
2022-10-23T09:20:52.436Z,8.63
2022-10-23T09:23:24.659Z,4.10
2022-10-23T09:25:57.104Z,4.13
2022-10-23T09:28:29.502Z,7.35
2022-10-23T09:31:08.546Z,5.90
2022-10-23T09:33:38.299Z,3.80
2022-10-23T09:36:11.232Z,2.97
2022-10-23T09:38:51.063Z,3.63
2022-10-23T09:41:23.164Z,6.22
2022-10-23T09:44:18.712Z,2.53
2022-10-23T09:49:22.313Z,3.17
2022-10-23T09:51:56.188Z,4.70
2022-10-23T09:54:27.530Z,2.95
2022-10-23T09:56:59.835Z,2.55
2022-10-23T09:59:32.333Z,6.72
2022-10-23T10:02:04.032Z,2.85
2022-10-23T10:04:43.915Z,1.88
2022-10-23T10:07:22.049Z,2.40
2022-10-23T10:09:53.846Z,1.77
2022-10-23T10:12:51.019Z,2.67
2022-10-23T10:15:27.110Z,3.40
2022-10-23T10:18:05.223Z,4.75
2022-10-23T10:20:54.614Z,2.08
2022-10-23T10:23:34.619Z,4.10
2022-10-23T10:26:16.809Z,2.80
2022-10-23T10:29:26.086Z,3.90
2022-10-23T10:32:07.305Z,3.30
2022-10-23T10:34:47.053Z,2.83
2022-10-23T10:37:30.803Z,4.20
2022-10-23T10:40:07.339Z,4.53
2022-10-23T10:42:55.667Z,4.03
2022-10-23T10:45:34.100Z,5.10
2022-10-23T10:48:31.171Z,5.47
2022-10-23T10:51:25.962Z,6.15
2022-10-23T10:54:10.416Z,4.93
2022-10-23T10:56:44.014Z,6.72
2022-10-23T10:59:20.146Z,3.83
2022-10-23T11:01:57.904Z,4.25
2022-10-23T11:04:35.367Z,7.78
2022-10-23T11:07:12.692Z,8.40
2022-10-23T11:09:43.325Z,5.20
2022-10-23T11:12:19.350Z,17.00
2022-10-23T11:14:51.719Z,13.85
2022-10-23T11:17:28.924Z,9.15
2022-10-23T11:20:05.307Z,5.07
2022-10-23T11:22:39.587Z,7.65
2022-10-23T11:25:42.271Z,4.25
2022-10-23T11:28:27.432Z,8.93
2022-10-23T11:34:13.674Z,8.25
2022-10-23T11:36:51.802Z,7.43
2022-10-23T11:39:25.043Z,5.40
2022-10-23T11:41:58.880Z,6.63
2022-10-23T11:44:40.748Z,4.07
2022-10-23T11:47:38.936Z,3.30
2022-10-23T11:50:28.239Z,3.85
2022-10-23T11:53:15.532Z,4.53
2022-10-23T11:56:02.391Z,3.70
2022-10-23T11:58:44.075Z,3.58
2022-10-23T12:01:37.621Z,5.97
2022-10-23T12:04:23.504Z,2.80
2022-10-23T12:06:55.488Z,2.97
2022-10-23T12:09:31.960Z,4.50
2022-10-23T12:12:27.323Z,3.47
2022-10-23T12:15:10.651Z,3.20
2022-10-23T12:17:42.578Z,3.53
2022-10-23T12:20:36.474Z,3.35
2022-10-23T12:23:26.802Z,4.25
2022-10-23T12:26:13.208Z,2.28
2022-10-23T12:28:50.661Z,3.90
2022-10-23T12:31:34.716Z,2.47
2022-10-23T12:34:14.895Z,2.30
2022-10-23T12:37:03.669Z,2.67
2022-10-23T12:39:36.378Z,2.55
2022-10-23T12:42:06.354Z,3.20
2022-10-23T12:44:35.755Z,1.63
2022-10-23T12:47:06.119Z,2.38
2022-10-23T12:49:35.705Z,2.25
2022-10-23T12:52:16.523Z,1.67
2022-10-23T12:54:45.827Z,2.45
2022-10-23T12:57:27.107Z,2.05
2022-10-23T13:00:00.418Z,2.45
2022-10-23T13:02:33.525Z,2.67
2022-10-23T13:05:06.756Z,3.40
2022-10-23T13:07:43.846Z,4.53
2022-10-23T13:10:17.187Z,2.15
2022-10-23T13:12:59.421Z,1.77
2022-10-23T13:15:39.471Z,1.95
2022-10-23T13:18:14.175Z,1.88
2022-10-23T13:20:45.712Z,1.67
2022-10-23T13:23:24.137Z,1.42
2022-10-23T13:25:58.336Z,2.63
2022-10-23T13:28:30.304Z,3.15
2022-10-23T13:31:03.059Z,2.25
2022-10-23T13:33:38.046Z,3.08
2022-10-23T13:36:21.927Z,1.98
2022-10-23T13:39:04.965Z,2.53
2022-10-23T13:41:39.652Z,1.55
2022-10-23T13:44:10.734Z,1.48
2022-10-23T13:46:40.178Z,2.63
2022-10-23T13:49:09.848Z,1.42
2022-10-23T13:51:42.789Z,6.18
2022-10-23T13:54:17.508Z,1.40
2022-10-23T13:56:47.313Z,1.50
2022-10-23T13:59:17.203Z,2.90
2022-10-23T14:01:48.166Z,3.40
2022-10-23T14:04:19.519Z,4.07
2022-10-23T14:06:49.100Z,3.00
2022-10-23T14:09:20.642Z,3.33
2022-10-23T14:11:50.031Z,2.25
2022-10-23T14:17:02.691Z,1.80
2022-10-23T14:19:32.188Z,1.35
2022-10-23T14:22:01.710Z,2.45
2022-10-23T14:24:32.621Z,2.35
2022-10-23T14:27:01.823Z,3.33
2022-10-23T14:29:31.303Z,2.95
2022-10-23T14:32:00.632Z,2.30
2022-10-23T14:34:30.128Z,1.45
2022-10-23T14:37:11.066Z,1.83
2022-10-23T14:39:44.200Z,3.00
2022-10-23T14:42:17.126Z,3.42
2022-10-23T14:44:46.993Z,5.22
2022-10-23T14:47:16.528Z,6.13
2022-10-23T14:49:49.446Z,4.18
2022-10-23T14:52:18.868Z,2.88
2022-10-23T14:54:50.029Z,5.53
2022-10-23T14:57:21.242Z,3.88
2022-10-23T14:59:51.419Z,3.30
2022-10-23T15:02:20.766Z,4.50
2022-10-23T15:04:50.172Z,10.77
2022-10-23T15:07:19.426Z,5.35
2022-10-23T15:09:52.068Z,5.13
2022-10-23T15:12:21.369Z,8.85
2022-10-23T15:14:51.099Z,4.68
2022-10-23T15:17:20.392Z,4.25
2022-10-23T15:19:50.119Z,12.13
2022-10-23T15:22:20.055Z,9.13
2022-10-23T15:24:52.199Z,6.80
2022-10-23T15:27:21.677Z,7.93
2022-10-23T15:29:51.227Z,9.52
2022-10-23T15:32:20.539Z,6.13
2022-10-23T15:34:50.353Z,7.18
2022-10-23T15:37:19.860Z,7.28
2022-10-23T15:39:50.891Z,9.55
2022-10-23T15:42:20.337Z,9.60
2022-10-23T15:44:49.979Z,10.50
2022-10-23T15:47:19.363Z,15.25
2022-10-23T15:49:48.852Z,9.48
2022-10-23T15:52:18.267Z,12.30
2022-10-23T15:54:49.292Z,10.65
2022-10-23T15:57:22.646Z,9.43
2022-10-23T15:59:52.244Z,14.02
2022-10-23T16:02:22.541Z,17.23
2022-10-23T16:04:52.252Z,15.93
2022-10-23T16:07:21.720Z,17.90
2022-10-23T16:09:52.618Z,17.60
2022-10-23T16:12:22.080Z,17.15
2022-10-23T16:14:52.324Z,21.75
2022-10-23T16:17:21.692Z,20.23
2022-10-23T16:19:51.215Z,23.83
2022-10-23T16:22:20.500Z,39.22
2022-10-23T16:24:51.386Z,44.47
2022-10-23T16:27:20.876Z,63.22
2022-10-23T16:29:50.565Z,47.83
2022-10-23T16:32:19.860Z,59.95
2022-10-23T16:34:49.385Z,64.57
2022-10-23T16:37:22.674Z,67.80
2022-10-23T16:40:07.502Z,72.22
2022-10-23T16:43:05.954Z,67.95
2022-10-23T16:45:39.451Z,82.47
2022-10-23T16:48:09.047Z,97.78
2022-10-23T16:50:40.885Z,150.77
2022-10-23T16:53:10.302Z,152.57
2022-10-23T16:55:43.693Z,123.50
2022-10-23T16:58:13.073Z,132.55
2022-10-23T17:00:42.574Z,120.90
2022-10-23T17:03:11.979Z,132.05
2022-10-23T17:05:41.488Z,148.77
2022-10-23T17:08:10.894Z,153.57
2022-10-23T17:10:40.524Z,140.48
2022-10-23T17:13:11.232Z,140.23
2022-10-23T17:18:14.979Z,118.25
2022-10-23T17:20:44.505Z,120.20
2022-10-23T17:23:13.883Z,115.47
2022-10-23T17:25:43.540Z,107.47
2022-10-23T17:28:14.351Z,114.47
2022-10-23T17:30:43.942Z,115.32
2022-10-23T17:33:13.302Z,104.28
2022-10-23T17:35:44.654Z,88.53
2022-10-23T17:38:17.978Z,103.10
2022-10-23T17:40:48.071Z,80.45
2022-10-23T17:43:18.762Z,83.13
2022-10-23T17:45:48.666Z,82.80
2022-10-23T17:48:18.112Z,78.55
2022-10-23T17:50:47.553Z,77.03
2022-10-23T17:53:16.925Z,58.25
2022-10-23T17:55:46.419Z,50.58
2022-10-23T17:58:17.290Z,39.67
2022-10-23T18:00:46.771Z,41.50
2022-10-23T18:03:19.783Z,35.08
2022-10-23T18:05:50.660Z,32.53
2022-10-23T18:08:19.996Z,33.05
2022-10-23T18:10:49.507Z,39.28
2022-10-23T18:13:20.226Z,34.50
2022-10-23T18:15:51.777Z,26.80
2022-10-23T18:18:21.075Z,20.70
2022-10-23T18:20:51.822Z,19.23
2022-10-23T18:23:21.238Z,20.17
2022-10-23T18:25:51.173Z,23.33
2022-10-23T18:28:21.865Z,24.75
2022-10-23T18:30:54.632Z,24.48
2022-10-23T18:33:26.648Z,34.33
2022-10-23T18:35:56.994Z,69.97
2022-10-23T18:38:26.363Z,66.45
2022-10-23T18:41:04.160Z,66.70
2022-10-23T18:43:43.790Z,78.43
2022-10-23T18:46:14.555Z,80.10
2022-10-23T18:48:44.198Z,45.30
2022-10-23T18:51:18.544Z,63.42
2022-10-23T18:53:48.587Z,59.08
2022-10-23T18:56:22.397Z,69.07
2022-10-23T18:58:54.864Z,54.38
2022-10-23T19:01:26.650Z,52.83
2022-10-23T19:03:57.552Z,49.20
2022-10-23T19:06:28.368Z,40.58
2022-10-23T19:08:58.065Z,45.10
2022-10-23T19:11:29.619Z,43.25
2022-10-23T19:14:00.504Z,49.95
2022-10-23T19:16:35.087Z,46.28
2022-10-23T19:19:08.791Z,45.20
2022-10-23T19:21:40.048Z,52.60
2022-10-23T19:24:14.000Z,46.03
2022-10-23T19:26:44.119Z,47.25
2022-10-23T19:29:18.050Z,40.63
2022-10-23T19:31:49.478Z,38.35
2022-10-23T19:34:20.323Z,41.55
2022-10-23T19:36:50.623Z,43.92
2022-10-23T19:39:20.296Z,36.08
2022-10-23T19:41:53.960Z,39.47
2022-10-23T19:44:24.963Z,43.92
2022-10-23T19:46:54.546Z,37.88
2022-10-23T19:49:24.076Z,43.85
2022-10-23T19:51:54.065Z,39.17
2022-10-23T19:54:23.583Z,38.30
2022-10-23T19:56:53.057Z,42.28
2022-10-23T19:59:23.908Z,47.53
2022-10-23T20:01:53.467Z,38.97
2022-10-23T20:04:22.864Z,42.80
2022-10-23T20:06:52.385Z,39.35
2022-10-23T20:09:22.108Z,40.20
2022-10-23T20:11:51.737Z,36.35
2022-10-23T20:14:21.406Z,39.28
2022-10-23T20:16:55.898Z,37.00
2022-10-23T20:19:25.897Z,37.33
2022-10-23T20:21:55.496Z,39.78
2022-10-23T20:24:24.821Z,44.38
2022-10-23T20:26:56.041Z,44.40
2022-10-23T20:29:25.915Z,42.95
2022-10-23T20:31:56.900Z,42.70
2022-10-23T20:34:26.170Z,38.50
2022-10-23T20:36:55.715Z,38.53
2022-10-23T20:39:26.627Z,37.85
2022-10-23T20:41:57.571Z,31.05
2022-10-23T20:44:27.381Z,35.50
2022-10-23T20:46:58.637Z,37.40
2022-10-23T20:49:28.184Z,36.53
2022-10-23T20:51:58.538Z,35.38
2022-10-23T20:54:29.426Z,39.10
2022-10-23T20:56:59.620Z,33.15
2022-10-23T20:59:28.819Z,33.55
2022-10-23T21:02:00.127Z,43.38
2022-10-23T21:04:30.320Z,44.65
2022-10-23T21:07:16.423Z,35.92
2022-10-23T21:09:45.998Z,31.88
2022-10-23T21:12:15.494Z,47.83
2022-10-23T21:14:44.767Z,39.05
2022-10-23T21:17:17.631Z,32.50
2022-10-23T21:19:46.983Z,30.40
2022-10-23T21:22:16.473Z,32.67
2022-10-23T21:24:45.810Z,32.13
2022-10-23T21:27:16.295Z,39.33
2022-10-23T21:29:45.719Z,45.42
2022-10-23T21:32:16.948Z,50.50
2022-10-23T21:34:46.252Z,76.13
2022-10-23T21:37:15.757Z,94.18
2022-10-23T21:39:47.260Z,61.35
2022-10-23T21:42:17.038Z,50.65
2022-10-23T21:44:46.753Z,43.58
2022-10-23T21:47:17.790Z,66.78
2022-10-23T21:49:47.269Z,48.15
2022-10-23T21:52:19.051Z,39.70
2022-10-23T21:54:53.372Z,34.63
2022-10-23T21:57:22.857Z,36.28
2022-10-23T21:59:52.112Z,37.22
2022-10-23T22:02:23.160Z,29.60
2022-10-23T22:04:52.585Z,31.67
2022-10-23T22:07:22.174Z,29.17
2022-10-23T22:09:51.501Z,34.90
2022-10-23T22:12:20.997Z,34.40
2022-10-23T22:14:50.297Z,46.47
2022-10-23T22:17:21.298Z,38.58
2022-10-23T22:19:50.545Z,43.30
2022-10-23T22:22:19.976Z,49.40
2022-10-23T22:24:49.376Z,46.38
2022-10-23T22:27:18.957Z,51.97
2022-10-23T22:29:48.235Z,54.10
2022-10-23T22:32:17.811Z,58.20
2022-10-23T22:34:53.142Z,52.15
2022-10-23T22:37:23.017Z,52.20
2022-10-23T22:39:53.035Z,56.17
2022-10-23T22:42:22.536Z,52.45
2022-10-23T22:44:51.933Z,40.85
2022-10-23T22:47:21.309Z,46.00
2022-10-23T22:49:52.831Z,46.33
2022-10-23T22:52:22.394Z,41.03
2022-10-23T22:54:51.633Z,46.60
2022-10-23T22:57:21.308Z,43.15
2022-10-23T22:59:50.619Z,43.00
2022-10-23T23:02:20.170Z,39.92
2022-10-23T23:04:50.877Z,38.25
2022-10-23T23:07:20.406Z,39.80
2022-10-23T23:09:49.760Z,37.72
2022-10-23T23:12:19.113Z,44.75
2022-10-23T23:14:48.507Z,34.92
2022-10-23T23:17:18.073Z,40.15
2022-10-23T23:19:47.296Z,36.60
2022-10-23T23:22:18.278Z,37.38
2022-10-23T23:24:47.568Z,37.33
2022-10-23T23:27:17.170Z,39.75
2022-10-23T23:29:46.546Z,36.00
2022-10-23T23:32:16.097Z,34.95
2022-10-23T23:34:45.391Z,36.08
2022-10-23T23:37:14.928Z,35.35
2022-10-23T23:39:45.591Z,36.50
2022-10-23T23:42:15.083Z,46.47
2022-10-23T23:44:55.760Z,45.10
2022-10-23T23:47:32.815Z,49.08
2022-10-23T23:50:02.403Z,58.15
2022-10-23T23:52:31.934Z,42.42
2022-10-23T23:55:02.954Z,47.97
2022-10-23T23:57:32.857Z,45.70
